createdAt,value
2022-08-03T00:01:49.627Z,96257.31
2022-08-03T00:04:16.678Z,96259.50
2022-08-03T00:06:43.137Z,96247.41
2022-08-03T00:09:09.770Z,96254.63
2022-08-03T00:11:37.363Z,96249.56
2022-08-03T00:14:05.733Z,96260.38
2022-08-03T00:16:32.851Z,96251.63
2022-08-03T00:19:00.773Z,96247.78
2022-08-03T00:21:28.435Z,96250.00
2022-08-03T00:23:55.207Z,96248.50
2022-08-03T00:26:22.450Z,96250.56
2022-08-03T00:28:49.761Z,96247.72
2022-08-03T00:31:19.763Z,96249.47
2022-08-03T00:34:03.368Z,96253.66
2022-08-03T00:36:30.376Z,96246.19
2022-08-03T00:38:56.843Z,96248.28
2022-08-03T00:41:23.304Z,96237.81
2022-08-03T00:43:50.317Z,96238.31
2022-08-03T00:46:21.408Z,96241.78
2022-08-03T00:48:52.120Z,96236.34
2022-08-03T00:51:20.771Z,96234.88
2022-08-03T00:53:47.559Z,96238.59
2022-08-03T00:56:15.773Z,96235.53
2022-08-03T00:58:43.792Z,96232.13
2022-08-03T01:01:12.261Z,96234.72
2022-08-03T01:03:39.270Z,96238.28
2022-08-03T01:06:19.256Z,96232.25
2022-08-03T01:09:00.600Z,96241.41
2022-08-03T01:12:01.003Z,96232.25
2022-08-03T01:14:38.728Z,96233.88
2022-08-03T01:17:21.203Z,96234.22
2022-08-03T01:19:52.848Z,96233.97
2022-08-03T01:22:57.589Z,96231.69
2022-08-03T01:25:28.901Z,96227.88
2022-08-03T01:28:02.698Z,96228.81
2022-08-03T01:30:35.692Z,96229.31
2022-08-03T01:33:12.397Z,96224.28
2022-08-03T01:35:49.061Z,96222.22
2022-08-03T01:38:22.079Z,96231.31
2022-08-03T01:40:52.259Z,96241.91
2022-08-03T01:44:26.732Z,96230.53
2022-08-03T01:46:09.024Z,96228.88
2022-08-03T01:48:39.090Z,96219.84
2022-08-03T01:51:09.219Z,96221.47
2022-08-03T01:53:36.935Z,96221.13
2022-08-03T01:56:06.244Z,96206.63
2022-08-03T01:58:35.470Z,96215.56
2022-08-03T02:01:05.015Z,96217.88
2022-08-03T02:03:36.432Z,96214.88
2022-08-03T02:07:00.281Z,96216.47
2022-08-03T02:08:53.019Z,96211.13
2022-08-03T02:11:20.586Z,96218.25
2022-08-03T02:13:48.477Z,96213.81
2022-08-03T02:16:14.951Z,96215.47
2022-08-03T02:18:42.563Z,96222.56
2022-08-03T02:21:11.833Z,96213.06
2022-08-03T02:23:58.564Z,96214.19
2022-08-03T02:26:28.921Z,96216.75
2022-08-03T02:28:58.527Z,96218.03
2022-08-03T02:31:30.925Z,96208.63
2022-08-03T02:34:03.069Z,96221.09
2022-08-03T02:36:33.048Z,96213.06
2022-08-03T02:39:02.121Z,96216.06
2022-08-03T02:41:35.774Z,96209.44
2022-08-03T02:44:07.960Z,96212.13
2022-08-03T02:46:38.439Z,96207.34
2022-08-03T02:49:49.446Z,96210.28
2022-08-03T02:51:55.093Z,96203.19
2022-08-03T02:54:25.229Z,96205.97
2022-08-03T02:56:53.766Z,96204.00
2022-08-03T02:59:21.657Z,96204.16
2022-08-03T03:01:48.948Z,96197.53
2022-08-03T03:04:17.062Z,96205.22
2022-08-03T03:06:44.563Z,96200.78
2022-08-03T03:09:14.475Z,96205.56
2022-08-03T03:11:42.386Z,96202.56
2022-08-03T03:14:11.298Z,96201.16
2022-08-03T03:16:40.531Z,96199.53
2022-08-03T03:19:08.421Z,96198.94
2022-08-03T03:21:36.636Z,96210.44
2022-08-03T03:24:05.263Z,96201.03
2022-08-03T03:26:32.987Z,96199.06
2022-08-03T03:28:59.691Z,96198.63
2022-08-03T03:31:26.119Z,96203.13
2022-08-03T03:33:52.876Z,96201.84
2022-08-03T03:36:19.426Z,96207.78
2022-08-03T03:38:45.828Z,96204.03
2022-08-03T03:41:12.728Z,96209.38
2022-08-03T03:43:39.131Z,96207.91
2022-08-03T03:46:05.593Z,96211.13
2022-08-03T03:48:32.387Z,96216.13
2022-08-03T03:50:59.180Z,96212.53
2022-08-03T03:53:25.537Z,96214.25
2022-08-03T03:55:59.406Z,96228.78
2022-08-03T03:58:28.687Z,96207.66
2022-08-03T04:00:55.933Z,96220.19
2022-08-03T04:03:22.374Z,96218.22
2022-08-03T04:06:08.043Z,96216.81
2022-08-03T04:08:52.751Z,96208.47
2022-08-03T04:11:32.242Z,96216.81
2022-08-03T04:14:24.882Z,96216.25
2022-08-03T04:17:07.500Z,96210.44
2022-08-03T04:19:40.634Z,96218.69
2022-08-03T04:22:11.684Z,96232.63
2022-08-03T04:24:50.732Z,96233.19
2022-08-03T04:27:22.320Z,96237.72
2022-08-03T04:29:52.972Z,96230.97
2022-08-03T04:32:23.841Z,96232.38
2022-08-03T04:34:50.582Z,96235.75
2022-08-03T04:37:43.558Z,96233.28
2022-08-03T04:40:14.506Z,96235.97
2022-08-03T04:42:43.919Z,96236.09
2022-08-03T04:45:16.157Z,96236.31
2022-08-03T04:47:43.164Z,96233.06
2022-08-03T04:50:12.936Z,96231.22
2022-08-03T04:52:40.796Z,96239.94
2022-08-03T04:55:08.054Z,96240.97
2022-08-03T04:57:34.483Z,96239.56
2022-08-03T05:00:02.983Z,96238.53
2022-08-03T05:02:31.149Z,96248.28
2022-08-03T05:04:58.043Z,96248.03
2022-08-03T05:07:25.375Z,96248.97
2022-08-03T05:09:57.547Z,96237.59
2022-08-03T05:12:32.529Z,96237.31
2022-08-03T05:15:00.270Z,96235.78
2022-08-03T05:17:26.729Z,96236.03
2022-08-03T05:19:53.096Z,96239.63
2022-08-03T05:22:20.135Z,96245.06
2022-08-03T05:24:47.031Z,96245.84
2022-08-03T05:27:19.488Z,96251.66
2022-08-03T05:29:47.174Z,96238.72
2022-08-03T05:32:13.642Z,96243.91
2022-08-03T05:34:40.379Z,96246.44
2022-08-03T05:37:07.347Z,96246.97
2022-08-03T05:39:34.698Z,96247.41
2022-08-03T05:42:02.205Z,96253.59
2022-08-03T05:44:28.764Z,96250.94
2022-08-03T05:46:57.263Z,96249.22
2022-08-03T05:49:24.084Z,96250.31
2022-08-03T05:52:00.388Z,96247.03
2022-08-03T05:54:56.120Z,96249.66
2022-08-03T05:57:22.368Z,96247.09
2022-08-03T05:59:54.010Z,96246.25
2022-08-03T06:02:28.404Z,96244.97
2022-08-03T06:04:55.303Z,96243.94
2022-08-03T06:07:21.713Z,96239.84
2022-08-03T06:10:34.040Z,96248.69
2022-08-03T06:12:36.485Z,96244.97
2022-08-03T06:15:04.748Z,96250.84
2022-08-03T06:17:37.221Z,96259.38
2022-08-03T06:20:06.075Z,96247.66
2022-08-03T06:22:32.983Z,96248.66
2022-08-03T06:25:04.181Z,96249.53
2022-08-03T06:27:37.139Z,96244.28
2022-08-03T06:30:05.091Z,96249.75
2022-08-03T06:32:31.558Z,96252.31
2022-08-03T06:34:57.924Z,96251.69
2022-08-03T06:37:24.879Z,96253.94
2022-08-03T06:39:51.236Z,96241.81
2022-08-03T06:42:17.935Z,96243.09
2022-08-03T06:44:47.409Z,96234.06
2022-08-03T06:47:13.757Z,96241.38
2022-08-03T06:49:41.371Z,96241.88
2022-08-03T06:52:08.136Z,96244.38
2022-08-03T06:54:35.713Z,96247.97
2022-08-03T06:57:02.336Z,96245.34
2022-08-03T07:00:09.790Z,96239.97
2022-08-03T07:02:19.439Z,96248.00
2022-08-03T07:04:48.140Z,96257.59
2022-08-03T07:07:14.511Z,96251.78
2022-08-03T07:09:40.854Z,96256.69
2022-08-03T07:12:08.810Z,96257.78
2022-08-03T07:14:35.251Z,96255.09
2022-08-03T07:17:01.655Z,96249.16
2022-08-03T07:19:31.580Z,96248.13
2022-08-03T07:22:02.329Z,96240.47
2022-08-03T07:24:30.856Z,96245.47
2022-08-03T07:26:57.488Z,96241.97
2022-08-03T07:29:24.371Z,96239.38
2022-08-03T07:31:50.732Z,96243.06
2022-08-03T07:34:17.127Z,96243.19
2022-08-03T07:36:43.921Z,96245.75
2022-08-03T07:39:15.329Z,96236.19
2022-08-03T07:41:44.371Z,96238.88
2022-08-03T07:44:11.316Z,96231.75
2022-08-03T07:46:37.693Z,96235.81
2022-08-03T07:49:04.236Z,96231.84
2022-08-03T07:51:31.227Z,96227.38
2022-08-03T07:53:57.726Z,96218.38
2022-08-03T07:56:27.212Z,96235.16
2022-08-03T07:58:54.973Z,96228.00
2022-08-03T08:01:22.304Z,96231.66
2022-08-03T08:03:53.319Z,96228.06
2022-08-03T08:06:21.798Z,96229.03
2022-08-03T08:08:48.224Z,96222.19
2022-08-03T08:11:14.927Z,96224.84
2022-08-03T08:13:41.844Z,96223.66
2022-08-03T08:16:08.287Z,96226.91
2022-08-03T08:18:34.649Z,96229.63
2022-08-03T08:21:03.121Z,96227.03
2022-08-03T08:23:42.931Z,96229.50
2022-08-03T08:26:11.403Z,96225.88
2022-08-03T08:28:38.163Z,96222.66
2022-08-03T08:31:04.625Z,96222.66
2022-08-03T08:34:02.532Z,96223.53
2022-08-03T08:36:18.487Z,96224.69
2022-08-03T08:38:45.115Z,96224.97
2022-08-03T08:41:13.085Z,96229.00
2022-08-03T08:43:40.728Z,96229.56
2022-08-03T08:46:10.034Z,96216.72
2022-08-03T08:48:41.897Z,96228.56
2022-08-03T08:51:09.327Z,96220.94
2022-08-03T08:53:37.720Z,96227.19
2022-08-03T08:56:05.738Z,96218.03
2022-08-03T08:58:38.175Z,96220.13
2022-08-03T09:01:05.260Z,96220.72
2022-08-03T09:03:34.447Z,96221.72
2022-08-03T09:06:02.645Z,96230.06
2022-08-03T09:08:31.189Z,96229.41
2022-08-03T09:10:57.939Z,96229.00
2022-08-03T09:13:24.751Z,96226.44
2022-08-03T09:16:15.295Z,96217.44
2022-08-03T09:18:44.282Z,96227.69
2022-08-03T09:21:31.311Z,96232.81
2022-08-03T09:24:03.191Z,96227.59
2022-08-03T09:26:31.572Z,96220.75
2022-08-03T09:29:07.146Z,96216.59
2022-08-03T09:31:46.497Z,96223.44
2022-08-03T09:34:15.180Z,96230.28
2022-08-03T09:36:47.387Z,96219.66
2022-08-03T09:39:14.697Z,96211.88
2022-08-03T09:42:02.563Z,96222.31
2022-08-03T09:44:43.572Z,96211.28
2022-08-03T09:47:12.084Z,96216.41
2022-08-03T09:49:41.614Z,96215.31
2022-08-03T09:52:37.850Z,96217.34
2022-08-03T09:56:30.773Z,96213.25
2022-08-03T09:58:09.749Z,96206.38
2022-08-03T10:00:54.694Z,96211.59
2022-08-03T10:03:21.882Z,96215.06
2022-08-03T10:05:48.873Z,96207.16
2022-08-03T10:08:17.335Z,96210.19
2022-08-03T10:10:45.380Z,96210.72
2022-08-03T10:13:17.846Z,96206.28
2022-08-03T10:16:23.292Z,96202.63
2022-08-03T10:18:32.905Z,96208.13
2022-08-03T10:21:04.661Z,96200.28
2022-08-03T10:23:35.850Z,96213.13
2022-08-03T10:26:04.147Z,96192.28
2022-08-03T10:28:45.315Z,96197.75
2022-08-03T10:31:13.944Z,96202.75
2022-08-03T10:33:51.568Z,96190.84
2022-08-03T10:36:23.716Z,96204.56
2022-08-03T10:38:53.445Z,96190.72
2022-08-03T10:41:21.864Z,96191.78
2022-08-03T10:43:58.525Z,96185.22
2022-08-03T10:46:27.657Z,96191.16
2022-08-03T10:48:56.529Z,96184.34
2022-08-03T10:51:23.568Z,96180.97
2022-08-03T10:53:55.357Z,96184.50
2022-08-03T10:56:53.535Z,96183.75
2022-08-03T10:59:46.475Z,96171.97
2022-08-03T11:02:14.234Z,96165.22
2022-08-03T11:04:41.484Z,96168.63
2022-08-03T11:07:24.199Z,96170.34
2022-08-03T11:09:51.804Z,96166.25
2022-08-03T11:12:30.071Z,96159.91
2022-08-03T11:15:06.236Z,96178.66
2022-08-03T11:17:46.788Z,96166.94
2022-08-03T11:20:48.513Z,96160.44
2022-08-03T11:23:16.901Z,96164.47
2022-08-03T11:26:22.500Z,96164.91
2022-08-03T11:28:49.311Z,96160.91
2022-08-03T11:31:46.688Z,96159.50
2022-08-03T11:34:14.415Z,96157.25
2022-08-03T11:37:19.968Z,96160.75
2022-08-03T11:39:48.343Z,96161.00
2022-08-03T11:42:24.646Z,96157.03
2022-08-03T11:44:56.247Z,96152.53
2022-08-03T11:47:24.740Z,96159.94
2022-08-03T11:49:53.941Z,96152.41
2022-08-03T11:52:26.753Z,96145.44
2022-08-03T11:54:56.730Z,96146.81
2022-08-03T11:59:01.178Z,96151.72
2022-08-03T12:00:32.615Z,96146.16
2022-08-03T12:03:08.957Z,96149.09
2022-08-03T12:05:51.243Z,96149.19
2022-08-03T12:08:39.973Z,96142.78
2022-08-03T12:11:08.675Z,96138.97
2022-08-03T12:14:45.594Z,96133.94
2022-08-03T12:16:31.143Z,96138.00
2022-08-03T12:19:06.784Z,96145.31
2022-08-03T12:21:33.356Z,96134.13
2022-08-03T12:24:02.016Z,96140.38
2022-08-03T12:26:30.355Z,96132.97
2022-08-03T12:28:57.731Z,96128.69
2022-08-03T12:31:24.807Z,96127.53
2022-08-03T12:34:02.268Z,96123.47
2022-08-03T12:36:30.606Z,96121.34
2022-08-03T12:39:01.124Z,96119.47
2022-08-03T12:41:34.190Z,96119.97
2022-08-03T12:44:03.238Z,96119.72
2022-08-03T12:46:32.239Z,96117.22
2022-08-03T12:49:15.699Z,96120.63
2022-08-03T12:51:42.057Z,96115.88
2022-08-03T12:54:10.290Z,96115.94
2022-08-03T12:56:57.673Z,96109.53
2022-08-03T12:59:32.500Z,96107.38
2022-08-03T13:02:02.864Z,96115.91
2022-08-03T13:04:36.182Z,96112.03
2022-08-03T13:07:04.555Z,96102.22
2022-08-03T13:09:49.054Z,96105.13
2022-08-03T13:12:18.001Z,96104.88
2022-08-03T13:14:47.451Z,96110.44
2022-08-03T13:17:14.003Z,96110.75
2022-08-03T13:19:40.837Z,96101.88
2022-08-03T13:22:20.687Z,96104.41
2022-08-03T13:24:50.029Z,96092.00
2022-08-03T13:28:04.928Z,96097.81
2022-08-03T13:30:04.066Z,96104.34
2022-08-03T13:32:30.712Z,96096.91
2022-08-03T13:34:57.171Z,96087.28
2022-08-03T13:37:24.291Z,96090.56
2022-08-03T13:39:59.692Z,96079.59
2022-08-03T13:42:30.887Z,96083.41
2022-08-03T13:44:57.820Z,96080.47
2022-08-03T13:47:24.489Z,96086.59
2022-08-03T13:49:54.134Z,96074.84
2022-08-03T13:52:32.929Z,96074.28
2022-08-03T13:55:00.545Z,96075.50
2022-08-03T13:58:03.562Z,96078.72
2022-08-03T14:00:26.650Z,96078.91
2022-08-03T14:03:02.737Z,96075.38
2022-08-03T14:05:32.424Z,96077.34
2022-08-03T14:08:04.856Z,96068.38
2022-08-03T14:10:33.352Z,96072.81
2022-08-03T14:13:00.337Z,96063.59
2022-08-03T14:15:28.900Z,96065.19
2022-08-03T14:17:56.157Z,96066.75
2022-08-03T14:20:37.195Z,96066.78
2022-08-03T14:23:07.177Z,96059.84
2022-08-03T14:25:44.487Z,96058.44
2022-08-03T14:28:18.859Z,96063.75
2022-08-03T14:30:46.476Z,96066.81
2022-08-03T14:33:12.843Z,96066.06
2022-08-03T14:35:39.411Z,96066.28
2022-08-03T14:38:06.483Z,96060.16
2022-08-03T14:40:32.902Z,96060.19
2022-08-03T14:42:59.290Z,96046.50
2022-08-03T14:45:26.054Z,96052.16
2022-08-03T14:50:32.076Z,96051.94
2022-08-03T14:50:44.202Z,96055.16
2022-08-03T14:53:12.177Z,96047.50
2022-08-03T14:55:50.482Z,96037.13
2022-08-03T14:58:23.022Z,96029.72
2022-08-03T15:00:51.028Z,96038.41
2022-08-03T15:03:23.976Z,96035.03
2022-08-03T15:05:55.233Z,96039.94
2022-08-03T15:08:23.508Z,96037.25
2022-08-03T15:10:50.398Z,96030.22
2022-08-03T15:13:17.802Z,96030.63
2022-08-03T15:15:44.275Z,96026.31
2022-08-03T15:18:10.816Z,96025.84
2022-08-03T15:20:44.978Z,96015.44
2022-08-03T15:23:14.530Z,96023.34
2022-08-03T15:26:28.152Z,96029.69
2022-08-03T15:28:30.232Z,96028.91
2022-08-03T15:30:57.025Z,96020.38
2022-08-03T15:33:23.429Z,96017.66
2022-08-03T15:35:50.125Z,96010.72
2022-08-03T15:38:17.257Z,96019.97
2022-08-03T15:40:43.886Z,96016.22
2022-08-03T15:43:10.456Z,96017.28
2022-08-03T15:45:37.581Z,96020.66
2022-08-03T15:48:05.428Z,96017.31
2022-08-03T15:50:31.870Z,96014.69
2022-08-03T15:52:58.631Z,96019.06
2022-08-03T15:55:25.149Z,96015.72
2022-08-03T15:59:04.117Z,96009.25
2022-08-03T16:00:39.020Z,96007.63
2022-08-03T16:03:06.223Z,96008.94
2022-08-03T16:05:32.620Z,96003.91
2022-08-03T16:08:03.700Z,96000.69
2022-08-03T16:10:32.136Z,95993.78
2022-08-03T16:13:00.521Z,95997.41
2022-08-03T16:15:27.052Z,96002.72
2022-08-03T16:17:53.446Z,95998.78
2022-08-03T16:20:29.222Z,95990.13
2022-08-03T16:23:10.846Z,96001.13
2022-08-03T16:25:44.262Z,95997.72
2022-08-03T16:28:16.386Z,95997.59
2022-08-03T16:30:45.621Z,95993.81
2022-08-03T16:33:16.968Z,95984.44
2022-08-03T16:35:44.581Z,95985.13
2022-08-03T16:38:16.527Z,95980.97
2022-08-03T16:40:45.716Z,95986.25
2022-08-03T16:43:18.979Z,95978.69
2022-08-03T16:45:47.347Z,95979.25
2022-08-03T16:48:17.420Z,95977.56
2022-08-03T16:50:44.614Z,95977.81
2022-08-03T16:53:17.102Z,95978.03
2022-08-03T16:55:59.213Z,95983.38
2022-08-03T16:58:41.307Z,95975.56
2022-08-03T17:01:24.735Z,95976.75
2022-08-03T17:04:03.247Z,95975.56
2022-08-03T17:06:35.350Z,95975.00
2022-08-03T17:09:10.851Z,95965.28
2022-08-03T17:11:46.439Z,95976.97
2022-08-03T17:14:15.359Z,95975.34
2022-08-03T17:16:53.042Z,95989.41
2022-08-03T17:19:23.708Z,95981.69
2022-08-03T17:21:58.635Z,95980.41
2022-08-03T17:24:45.551Z,95973.19
2022-08-03T17:28:42.168Z,95975.72
2022-08-03T17:30:12.139Z,95982.91
2022-08-03T17:32:42.894Z,95984.84
2022-08-03T17:35:20.883Z,95987.66
2022-08-03T17:37:57.365Z,95991.00
2022-08-03T17:40:31.758Z,95990.13
2022-08-03T17:43:00.181Z,95995.44
2022-08-03T17:45:52.117Z,95990.13
2022-08-03T17:48:18.478Z,95992.88
2022-08-03T17:50:51.646Z,95990.94
2022-08-03T17:53:28.807Z,95990.38
2022-08-03T17:56:44.723Z,95995.56
2022-08-03T17:59:08.569Z,96002.06
2022-08-03T18:02:22.275Z,96000.19
2022-08-03T18:05:03.283Z,95995.59
2022-08-03T18:08:01.644Z,96001.66
2022-08-03T18:10:35.251Z,96005.03
2022-08-03T18:13:10.467Z,96002.63
2022-08-03T18:15:51.784Z,96017.22
2022-08-03T18:18:32.217Z,96010.81
2022-08-03T18:21:06.563Z,96009.19
2022-08-03T18:23:37.653Z,96008.63
2022-08-03T18:26:10.684Z,96001.69
2022-08-03T18:28:39.217Z,96009.13
2022-08-03T18:31:07.089Z,95999.28
2022-08-03T18:34:18.615Z,96009.53
2022-08-03T18:36:30.223Z,96016.63
2022-08-03T18:39:02.469Z,96019.38
2022-08-03T18:41:33.672Z,96024.53
2022-08-03T18:44:06.650Z,96021.56
2022-08-03T18:46:50.345Z,96022.94
2022-08-03T18:49:32.484Z,96020.16
2022-08-03T18:52:15.765Z,96028.44
2022-08-03T18:55:20.002Z,96019.09
2022-08-03T18:57:59.492Z,96016.84
2022-08-03T19:00:42.559Z,96023.22
2022-08-03T19:03:25.346Z,96026.56
2022-08-03T19:06:19.699Z,96028.41
2022-08-03T19:08:53.892Z,96025.13
2022-08-03T19:12:14.476Z,96026.44
2022-08-03T19:14:23.148Z,96024.16
2022-08-03T19:17:04.400Z,96033.25
2022-08-03T19:19:43.373Z,96029.16
2022-08-03T19:22:16.104Z,96033.97
2022-08-03T19:24:47.665Z,96037.03
2022-08-03T19:27:16.041Z,96030.34
2022-08-03T19:29:58.823Z,96039.31
2022-08-03T19:32:29.397Z,96033.31
2022-08-03T19:34:57.244Z,96046.91
2022-08-03T19:37:27.441Z,96035.75
2022-08-03T19:40:10.373Z,96043.47
2022-08-03T19:42:44.195Z,96038.13
2022-08-03T19:45:14.816Z,96035.50
2022-08-03T19:48:10.133Z,96031.34
2022-08-03T19:50:37.940Z,96038.78
2022-08-03T19:53:12.989Z,96037.75
2022-08-03T19:55:48.141Z,96031.63
2022-08-03T19:58:17.829Z,96043.56
2022-08-03T20:00:55.797Z,96035.75
2022-08-03T20:03:23.495Z,96038.75
2022-08-03T20:05:51.879Z,96045.84
2022-08-03T20:08:21.339Z,96047.53
2022-08-03T20:10:49.312Z,96048.16
2022-08-03T20:13:19.369Z,96049.84
2022-08-03T20:15:46.536Z,96053.63
2022-08-03T20:21:15.074Z,96053.75
2022-08-03T20:24:01.612Z,96051.91
2022-08-03T20:26:30.642Z,96052.78
2022-08-03T20:29:08.917Z,96040.94
2022-08-03T20:31:37.817Z,96047.47
2022-08-03T20:34:06.170Z,96047.50
2022-08-03T20:36:32.719Z,96044.78
2022-08-03T20:38:59.826Z,96038.63
2022-08-03T20:41:26.566Z,96041.84
2022-08-03T20:43:53.038Z,96042.69
2022-08-03T20:46:28.512Z,96045.41
2022-08-03T20:48:58.837Z,96037.38
2022-08-03T20:51:49.973Z,96032.78
2022-08-03T20:54:22.442Z,96037.59
2022-08-03T20:56:56.877Z,96047.06
2022-08-03T20:59:24.277Z,96033.06
2022-08-03T21:01:50.656Z,96039.81
2022-08-03T21:04:20.868Z,96040.63
2022-08-03T21:06:53.905Z,96036.88
2022-08-03T21:09:24.865Z,96039.31
2022-08-03T21:12:03.291Z,96033.63
2022-08-03T21:13:09.879Z,96054.22
2022-08-03T21:14:32.826Z,96029.34
2022-08-03T21:17:09.403Z,96035.84
2022-08-03T21:19:52.118Z,96029.91
2022-08-03T21:22:22.622Z,96033.69
2022-08-03T21:24:54.336Z,96027.72
2022-08-03T21:27:24.276Z,96034.72
2022-08-03T21:29:53.455Z,96030.69
2022-08-03T21:32:32.378Z,96033.09
2022-08-03T21:35:02.629Z,96030.66
2022-08-03T21:37:29.628Z,96033.31
2022-08-03T21:39:56.555Z,96030.91
2022-08-03T21:42:23.786Z,96029.56
2022-08-03T21:44:52.667Z,96026.09
2022-08-03T21:47:22.059Z,96035.47
2022-08-03T21:50:08.342Z,96030.59
2022-08-03T21:52:42.079Z,96032.47
2022-08-03T21:55:09.120Z,96035.72
2022-08-03T21:57:51.087Z,96030.06
2022-08-03T22:00:19.964Z,96034.06
2022-08-03T22:02:54.547Z,96031.63
2022-08-03T22:05:28.905Z,96035.16
2022-08-03T22:08:09.999Z,96031.34
2022-08-03T22:10:36.926Z,96032.66
2022-08-03T22:13:03.356Z,96027.53
2022-08-03T22:15:31.026Z,96028.88
2022-08-03T22:17:59.056Z,96035.00
2022-08-03T22:20:25.851Z,96033.91
2022-08-03T22:22:59.766Z,96038.69
2022-08-03T22:25:29.661Z,96047.25
2022-08-03T22:27:58.381Z,96043.47
2022-08-03T22:30:25.783Z,96047.19
2022-08-03T22:32:55.051Z,96048.28
2022-08-03T22:35:25.171Z,96048.25
2022-08-03T22:37:54.912Z,96053.03
2022-08-03T22:40:22.035Z,96051.44
2022-08-03T22:42:49.533Z,96057.78
2022-08-03T22:46:07.945Z,96055.09
2022-08-03T22:48:08.156Z,96063.59
2022-08-03T22:50:35.036Z,96067.38
2022-08-03T22:53:01.485Z,96066.56
2022-08-03T22:55:28.064Z,96068.66
2022-08-03T22:57:56.154Z,96071.06
2022-08-03T23:00:23.316Z,96084.16
2022-08-03T23:02:52.262Z,96080.97
2022-08-03T23:06:01.900Z,96080.19
2022-08-03T23:08:15.406Z,96084.06
2022-08-03T23:10:46.692Z,96083.00
2022-08-03T23:13:16.346Z,96080.88
2022-08-03T23:15:51.126Z,96085.97
2022-08-03T23:18:20.851Z,96080.13
2022-08-03T23:20:51.513Z,96084.44
2022-08-03T23:23:20.584Z,96080.72
2022-08-03T23:25:50.094Z,96084.56
2022-08-03T23:28:17.310Z,96084.47
2022-08-03T23:30:47.429Z,96078.69
2022-08-03T23:33:15.085Z,96073.06
2022-08-03T23:36:28.420Z,96076.16
2022-08-03T23:38:45.899Z,96086.69
2022-08-03T23:41:13.685Z,96082.34
2022-08-03T23:43:52.193Z,96086.06
2022-08-03T23:46:26.120Z,96094.31
2022-08-03T23:48:53.786Z,96082.78
2022-08-03T23:51:34.575Z,96086.00
2022-08-03T23:54:21.511Z,96076.38
2022-08-03T23:56:59.603Z,96084.50
2022-08-03T23:59:43.798Z,96087.50
